Airfield :
LOGIN :

Register | Disclaimer

   EN    FR    IT 

 










Legend :    VFR   Marginal VFR   IFR   Intensive IFR   Very Intensive IFR
Visi :
Ceiling :
>= 8 km
>= 3000ft
5 to 8 km
1000 to 3000 ft
1500m to 5 km
500 to 1000 ft
800 to 1500m
200 to 500 ft
< 800m
< 200 ft
Symbols :   Thunderstorms  Fog  Heavy snow  Heavy precipitations  Wind > 20 kt
SIGMETs :     Misc.  Thunderstorms  Icing  Turbulence  Mountain Waves  Volcanic Ashes







- Airport Elevation : 83 ft
- IATA code : LHR
- Download approach charts


EGLL - London Heathrow

CURRENT METAR :
  • 212220Z AUTO 01006KT 9999 NCD 17/11 Q1014

EXPIRED METARs :
  • 212150Z AUTO 03004KT 340V070 9999 NCD 18/11 Q1014 NOSIG
  • 212120Z AUTO VRB03KT 9999 NCD 18/11 Q1014 NOSIG
  • 212050Z AUTO 36004KT 320V030 9999 NCD 19/11 Q1014 NOSIG
  • 212020Z AUTO 35004KT 9999 NCD 19/11 Q1014 NOSIG
  • 211950Z AUTO 36004KT 9999 //////CB 20/10 Q1014 NOSIG

TAF TAF EGLL
Valid from the 21 at 18:00 until the 23 at 00:00 UTC


211701Z 2118/2224 03006KT 9999 FEW045
PROB30
TEMPO 2118/2119 4000 +SHRA
PROB30
TEMPO 2122/2208 8000 -SHRA
PROB30
TEMPO 2213/2217 4000 +SHRA
No reported NOTAMs for that airfield.



MET'MAP, your aeronautical weather chart ! - Copyright ORBIFLY December 2007 - Disclaimer

ORBIFLY MET'MAP TEAM :

Programming & Development : Alexandra Zaïnal
Concept & Development : Baudouin d'Aumeries
Co-Development & Prog : Marc-Olivier Méhu
Technical & hardware support : Manuel Goepfert

Contact : metmap@orbifly.com




SOURCES & CREDITS :

   NOAA